createdAt,value
2018-03-20T00:01:09.275Z,5.53
2018-03-20T00:03:39.009Z,8.65
2018-03-20T00:06:08.767Z,7.60
2018-03-20T00:08:38.821Z,7.32
2018-03-20T00:11:08.548Z,6.00
2018-03-20T00:13:39.105Z,5.93
2018-03-20T00:16:08.937Z,6.93
2018-03-20T00:18:38.882Z,5.93
2018-03-20T00:21:08.816Z,6.37
2018-03-20T00:23:38.536Z,5.65
2018-03-20T00:26:08.279Z,5.72
2018-03-20T00:28:38.049Z,6.72
2018-03-20T00:31:08.635Z,5.90
2018-03-20T00:33:38.353Z,5.43
2018-03-20T00:36:08.187Z,5.68
2018-03-20T00:38:37.904Z,6.03
2018-03-20T00:41:07.673Z,5.87
2018-03-20T00:43:38.280Z,6.35
2018-03-20T00:46:07.989Z,5.60
2018-03-20T00:48:37.688Z,6.30
2018-03-20T00:51:07.554Z,6.30
2018-03-20T00:53:37.852Z,6.93
2018-03-20T00:56:07.540Z,6.72
2018-03-20T00:58:38.072Z,6.28
2018-03-20T01:01:08.675Z,5.68
2018-03-20T01:03:38.448Z,5.95
2018-03-20T01:06:09.020Z,6.95
2018-03-20T01:08:38.787Z,5.78
2018-03-20T01:11:08.531Z,5.60
2018-03-20T01:13:39.406Z,6.07
2018-03-20T01:16:09.250Z,5.93
2018-03-20T01:18:38.988Z,5.93
2018-03-20T01:21:08.680Z,6.28
2018-03-20T01:23:38.560Z,6.00
2018-03-20T01:26:08.362Z,6.25
2018-03-20T01:28:38.032Z,5.25
2018-03-20T01:31:07.813Z,6.47
2018-03-20T01:33:37.576Z,6.65
2018-03-20T01:36:07.393Z,5.95
2018-03-20T01:38:37.153Z,5.37
2018-03-20T01:41:07.381Z,5.65
2018-03-20T01:43:37.110Z,6.90
2018-03-20T01:46:07.563Z,5.62
2018-03-20T01:48:37.288Z,5.82
2018-03-20T01:51:07.385Z,5.60
2018-03-20T01:53:37.207Z,5.95
2018-03-20T01:56:06.945Z,6.07
2018-03-20T01:58:36.774Z,6.65
2018-03-20T02:01:06.845Z,7.20
2018-03-20T02:03:37.340Z,6.72
2018-03-20T02:06:07.033Z,7.43
2018-03-20T02:08:36.720Z,5.85
2018-03-20T02:11:07.239Z,6.95
2018-03-20T02:13:37.568Z,7.12
2018-03-20T02:16:08.051Z,5.85
2018-03-20T02:18:37.911Z,6.68
2018-03-20T02:21:07.588Z,7.35
2018-03-20T02:23:37.334Z,6.72
2018-03-20T02:26:07.207Z,7.57
2018-03-20T02:28:36.881Z,6.78
2018-03-20T02:31:06.806Z,6.87
2018-03-20T02:33:37.256Z,5.60
2018-03-20T02:36:07.094Z,6.12
2018-03-20T02:38:36.845Z,5.22
2018-03-20T02:41:06.613Z,6.50
2018-03-20T02:43:36.307Z,7.25
2018-03-20T02:46:06.933Z,7.85
2018-03-20T02:48:36.629Z,6.78
2018-03-20T02:51:06.397Z,7.25
2018-03-20T02:53:36.921Z,6.12
2018-03-20T02:56:06.762Z,7.57
2018-03-20T02:58:37.217Z,6.72
2018-03-20T03:01:07.046Z,6.68
2018-03-20T03:03:36.761Z,7.50
2018-03-20T03:06:06.590Z,6.22
2018-03-20T03:08:36.353Z,7.15
2018-03-20T03:11:06.156Z,6.05
2018-03-20T03:13:36.208Z,6.03
2018-03-20T03:16:05.968Z,6.10
2018-03-20T03:18:36.562Z,6.40
2018-03-20T03:21:06.333Z,6.45
2018-03-20T03:23:36.040Z,6.55
2018-03-20T03:26:05.913Z,6.75
2018-03-20T03:28:35.597Z,8.05
2018-03-20T03:31:06.132Z,7.18
2018-03-20T03:33:36.731Z,7.10
2018-03-20T03:36:07.585Z,6.87
2018-03-20T03:38:37.565Z,6.47
2018-03-20T03:41:07.313Z,6.95
2018-03-20T03:43:36.987Z,6.75
2018-03-20T03:46:07.467Z,7.82
2018-03-20T03:48:37.223Z,7.45
2018-03-20T03:51:07.029Z,7.45
2018-03-20T03:53:36.851Z,8.25
2018-03-20T03:56:06.586Z,8.57
2018-03-20T03:58:36.320Z,6.85
2018-03-20T04:01:06.108Z,6.62
2018-03-20T04:03:35.959Z,7.07
2018-03-20T04:06:05.784Z,7.35
2018-03-20T04:08:35.587Z,6.32
2018-03-20T04:11:05.334Z,8.50
2018-03-20T04:13:36.106Z,8.15
2018-03-20T04:16:06.593Z,7.12
2018-03-20T04:18:36.424Z,7.32
2018-03-20T04:21:06.176Z,7.28
2018-03-20T04:23:38.835Z,7.47
2018-03-20T04:26:08.580Z,7.00
2018-03-20T04:28:39.172Z,6.07
2018-03-20T04:31:08.826Z,7.30
2018-03-20T04:33:39.343Z,6.60
2018-03-20T04:36:09.117Z,7.28
2018-03-20T04:38:38.837Z,6.55
2018-03-20T04:41:09.078Z,7.07
2018-03-20T04:43:38.785Z,6.70
2018-03-20T04:46:08.499Z,7.82
2018-03-20T04:48:38.433Z,6.57
2018-03-20T04:51:08.184Z,7.20
2018-03-20T04:53:37.945Z,6.15
2018-03-20T04:56:07.665Z,7.68
2018-03-20T04:58:43.858Z,6.75
2018-03-20T05:01:13.637Z,7.62
2018-03-20T05:03:43.623Z,8.05
2018-03-20T05:06:13.303Z,8.25
2018-03-20T05:08:43.017Z,6.37
2018-03-20T05:11:12.820Z,8.23
2018-03-20T05:13:43.314Z,7.50
2018-03-20T05:16:13.268Z,8.15
2018-03-20T05:18:43.961Z,8.45
2018-03-20T05:21:14.295Z,7.75
2018-03-20T05:23:44.108Z,8.68
2018-03-20T05:26:13.968Z,7.82
2018-03-20T05:28:43.720Z,8.65
2018-03-20T05:31:14.459Z,8.15
2018-03-20T05:33:44.224Z,8.40
2018-03-20T05:36:14.024Z,7.05
2018-03-20T05:38:43.807Z,8.25
2018-03-20T05:41:13.578Z,7.75
2018-03-20T05:43:43.388Z,6.60
2018-03-20T05:46:14.021Z,7.68
2018-03-20T05:48:44.084Z,8.10
2018-03-20T05:51:14.015Z,8.45
2018-03-20T05:53:44.540Z,7.22
2018-03-20T05:56:14.251Z,8.95
2018-03-20T05:58:44.854Z,9.70
2018-03-20T06:01:14.562Z,8.07
2018-03-20T06:03:44.690Z,8.40
2018-03-20T06:06:14.427Z,8.63
2018-03-20T06:08:44.107Z,9.30
2018-03-20T06:11:14.543Z,9.57
2018-03-20T06:13:44.220Z,8.63
2018-03-20T06:16:13.906Z,9.10
2018-03-20T06:18:43.758Z,9.00
2018-03-20T06:21:13.483Z,8.05
2018-03-20T06:23:43.103Z,7.50
2018-03-20T06:26:12.886Z,8.65
2018-03-20T06:28:42.713Z,7.55
2018-03-20T06:31:12.658Z,9.20
2018-03-20T06:33:42.542Z,8.07
2018-03-20T06:36:12.614Z,7.45
2018-03-20T06:38:42.387Z,9.95
2018-03-20T06:41:12.190Z,8.73
2018-03-20T06:43:41.851Z,8.05
2018-03-20T06:46:11.674Z,9.57
2018-03-20T06:48:41.395Z,10.88
2018-03-20T06:51:11.084Z,9.88
2018-03-20T06:53:41.603Z,11.95
2018-03-20T06:56:11.349Z,12.27
2018-03-20T06:58:41.774Z,12.40
2018-03-20T07:01:11.657Z,13.20
2018-03-20T07:03:41.372Z,11.82
2018-03-20T07:06:11.034Z,12.45
2018-03-20T07:08:40.668Z,12.70
2018-03-20T07:11:11.268Z,10.52
2018-03-20T07:13:41.041Z,11.10
2018-03-20T07:16:10.691Z,11.20
2018-03-20T07:18:40.565Z,12.07
2018-03-20T07:21:11.215Z,11.65
2018-03-20T07:23:41.707Z,11.73
2018-03-20T07:26:11.462Z,12.00
2018-03-20T07:28:41.213Z,11.07
2018-03-20T07:31:11.113Z,11.40
2018-03-20T07:33:41.205Z,11.30
2018-03-20T07:36:10.946Z,11.85
2018-03-20T07:38:40.858Z,11.80
2018-03-20T07:41:10.883Z,12.60
2018-03-20T07:43:40.892Z,13.32
2018-03-20T07:46:11.008Z,14.55
2018-03-20T07:48:40.959Z,12.20
2018-03-20T07:51:10.644Z,11.75
2018-03-20T07:53:41.114Z,12.32
2018-03-20T07:56:10.857Z,11.75
2018-03-20T07:58:40.748Z,11.18
2018-03-20T08:01:10.696Z,8.23
2018-03-20T08:03:40.487Z,7.12
2018-03-20T08:06:11.102Z,6.50
2018-03-20T08:08:40.827Z,7.30
2018-03-20T08:11:10.640Z,5.57
2018-03-20T08:13:40.332Z,5.95
2018-03-20T08:16:10.202Z,5.37
2018-03-20T08:18:40.002Z,5.57
2018-03-20T08:21:09.816Z,4.62
2018-03-20T08:23:39.780Z,5.18
2018-03-20T08:26:10.376Z,4.85
2018-03-20T08:28:40.079Z,5.40
2018-03-20T08:31:09.965Z,5.18
2018-03-20T08:33:40.559Z,5.35
2018-03-20T08:36:10.325Z,4.32
2018-03-20T08:38:40.216Z,5.25
2018-03-20T08:41:09.963Z,4.75
2018-03-20T08:43:39.729Z,4.57
2018-03-20T08:46:09.554Z,4.20
2018-03-20T08:48:39.356Z,4.40
2018-03-20T08:51:09.914Z,3.90
2018-03-20T08:53:39.609Z,3.75
2018-03-20T08:56:09.494Z,4.87
2018-03-20T08:58:39.332Z,5.07
2018-03-20T09:01:09.119Z,4.20
2018-03-20T09:03:39.050Z,3.75
2018-03-20T09:06:08.827Z,3.70
2018-03-20T09:08:39.316Z,3.28
2018-03-20T09:11:09.090Z,3.45
2018-03-20T09:13:38.870Z,3.92
2018-03-20T09:16:08.766Z,3.92
2018-03-20T09:18:38.423Z,3.28
2018-03-20T09:21:08.254Z,3.33
2018-03-20T09:23:37.998Z,3.35
2018-03-20T09:26:07.766Z,3.70
2018-03-20T09:28:37.489Z,2.90
2018-03-20T09:31:07.320Z,3.95
2018-03-20T09:33:37.071Z,3.28
2018-03-20T09:36:06.872Z,2.95
2018-03-20T09:38:36.650Z,3.60
2018-03-20T09:41:07.184Z,3.80
2018-03-20T09:43:37.734Z,3.22
2018-03-20T09:46:08.252Z,2.83
2018-03-20T09:48:38.371Z,2.50
2018-03-20T09:51:08.152Z,2.42
2018-03-20T09:53:38.302Z,2.40
2018-03-20T09:56:08.182Z,2.30
2018-03-20T09:58:38.912Z,2.05
2018-03-20T10:01:08.846Z,2.05
2018-03-20T10:03:39.337Z,2.65
2018-03-20T10:06:09.282Z,2.37
2018-03-20T10:08:38.987Z,1.67
2018-03-20T10:11:08.729Z,1.98
2018-03-20T10:13:38.580Z,1.92
2018-03-20T10:16:09.049Z,2.47
2018-03-20T10:18:40.049Z,2.00
2018-03-20T10:21:09.886Z,1.35
2018-03-20T10:23:40.293Z,2.00
2018-03-20T10:26:10.066Z,1.50
2018-03-20T10:28:40.592Z,1.67
2018-03-20T10:31:11.371Z,1.55
2018-03-20T10:33:41.186Z,1.40
2018-03-20T10:36:11.002Z,1.55
2018-03-20T10:38:40.738Z,1.30
2018-03-20T10:41:10.493Z,1.30
2018-03-20T10:43:40.756Z,1.45
2018-03-20T10:46:10.901Z,1.30
2018-03-20T10:48:41.415Z,1.30
2018-03-20T10:51:11.159Z,1.50
2018-03-20T10:53:41.643Z,1.30
2018-03-20T10:56:11.582Z,1.10
2018-03-20T10:58:42.707Z,0.93
2018-03-20T11:01:16.528Z,1.20
2018-03-20T11:03:46.440Z,1.67
2018-03-20T11:06:16.944Z,1.60
2018-03-20T11:08:46.715Z,1.40
2018-03-20T11:11:16.570Z,1.97
2018-03-20T11:13:46.329Z,1.73
2018-03-20T11:16:17.316Z,2.00
2018-03-20T11:18:47.344Z,1.20
2018-03-20T11:21:17.513Z,1.60
2018-03-20T11:23:48.736Z,1.17
2018-03-20T11:26:19.304Z,1.90
2018-03-20T11:28:49.069Z,1.47
2018-03-20T11:31:19.543Z,1.30
2018-03-20T11:33:49.348Z,0.90
2018-03-20T11:36:19.350Z,1.07
2018-03-20T11:38:49.041Z,1.00
2018-03-20T11:41:18.962Z,1.57
2018-03-20T11:43:48.695Z,1.30
2018-03-20T11:46:18.623Z,1.00
2018-03-20T11:48:48.887Z,1.50
2018-03-20T11:51:19.349Z,1.10
2018-03-20T11:53:49.127Z,0.90
2018-03-20T11:56:19.028Z,1.10
2018-03-20T11:58:48.904Z,1.37
2018-03-20T12:01:18.720Z,1.00
2018-03-20T12:03:49.232Z,1.30
2018-03-20T12:06:18.999Z,1.37
2018-03-20T12:08:51.867Z,0.90
2018-03-20T12:11:21.660Z,1.00
2018-03-20T12:13:51.418Z,1.10
2018-03-20T12:16:21.302Z,1.10
2018-03-20T12:18:51.293Z,1.20
2018-03-20T12:21:21.152Z,1.03
2018-03-20T12:23:50.963Z,0.77
2018-03-20T12:26:20.922Z,1.17
2018-03-20T12:28:50.700Z,0.80
2018-03-20T12:31:20.532Z,1.07
2018-03-20T12:33:50.278Z,1.07
2018-03-20T12:36:20.110Z,0.70
2018-03-20T12:38:49.908Z,0.77
2018-03-20T12:41:19.847Z,1.10
2018-03-20T12:43:50.006Z,1.00
2018-03-20T12:46:19.784Z,1.07
2018-03-20T12:48:49.770Z,1.20
2018-03-20T12:51:19.528Z,1.23
2018-03-20T12:53:51.251Z,1.77
2018-03-20T12:56:20.954Z,1.30
2018-03-20T12:58:50.886Z,0.90
2018-03-20T13:01:20.896Z,1.20
2018-03-20T13:03:50.918Z,1.40
2018-03-20T13:06:21.292Z,1.20
2018-03-20T13:08:51.036Z,1.20
2018-03-20T13:11:21.657Z,0.80
2018-03-20T13:13:51.477Z,1.00
2018-03-20T13:16:21.909Z,1.27
2018-03-20T13:18:51.893Z,1.60
2018-03-20T13:21:21.684Z,1.57
2018-03-20T13:23:51.447Z,1.07
2018-03-20T13:26:21.300Z,1.20
2018-03-20T13:28:51.111Z,1.00
2018-03-20T13:31:21.003Z,0.90
2018-03-20T13:33:50.719Z,0.90
2018-03-20T13:36:20.455Z,1.13
2018-03-20T13:38:50.352Z,1.17
2018-03-20T13:41:20.970Z,1.00
2018-03-20T13:43:50.840Z,1.30
2018-03-20T13:46:20.620Z,1.20
2018-03-20T13:48:51.369Z,1.33
2018-03-20T13:51:21.162Z,1.30
2018-03-20T13:53:50.913Z,1.20
2018-03-20T13:56:21.285Z,1.20
2018-03-20T13:58:51.034Z,1.10
2018-03-20T14:01:21.080Z,1.10
2018-03-20T14:03:50.803Z,1.67
2018-03-20T14:06:20.661Z,1.10
2018-03-20T14:08:51.181Z,0.80
2018-03-20T14:11:20.929Z,1.13
2018-03-20T14:13:51.494Z,1.00
2018-03-20T14:16:21.591Z,0.80
2018-03-20T14:18:51.338Z,1.07
2018-03-20T14:21:21.207Z,0.83
2018-03-20T14:23:51.288Z,1.30
2018-03-20T14:26:21.814Z,1.40
2018-03-20T14:28:52.015Z,1.10
2018-03-20T14:31:22.005Z,1.10
2018-03-20T14:33:51.853Z,1.33
2018-03-20T14:36:21.796Z,1.60
2018-03-20T14:38:51.665Z,1.10
2018-03-20T14:41:22.208Z,0.70
2018-03-20T14:43:52.874Z,0.90
2018-03-20T14:46:23.017Z,0.73
2018-03-20T14:48:52.802Z,1.07
2018-03-20T14:51:23.452Z,1.13
2018-03-20T14:53:53.914Z,1.10
2018-03-20T14:56:23.882Z,1.10
2018-03-20T14:58:53.618Z,1.10
2018-03-20T15:01:23.580Z,1.10
2018-03-20T15:03:53.668Z,1.20
2018-03-20T15:06:23.424Z,1.00
2018-03-20T15:08:53.172Z,1.23
2018-03-20T15:11:23.027Z,0.90
2018-03-20T15:13:52.736Z,1.20
2018-03-20T15:16:22.462Z,1.00
2018-03-20T15:18:52.233Z,1.10
2018-03-20T15:21:23.267Z,0.80
2018-03-20T15:23:54.068Z,0.90
2018-03-20T15:26:24.542Z,0.73
2018-03-20T15:28:54.407Z,0.87
2018-03-20T15:31:24.237Z,1.20
2018-03-20T15:33:54.036Z,0.70
2018-03-20T15:36:24.013Z,0.93
2018-03-20T15:38:53.891Z,0.80
2018-03-20T15:41:24.615Z,1.00
2018-03-20T15:43:54.456Z,1.00
2018-03-20T15:46:24.939Z,0.83
2018-03-20T15:48:54.728Z,0.87
2018-03-20T15:51:24.515Z,1.70
2018-03-20T15:53:54.699Z,1.50
2018-03-20T15:56:24.414Z,1.10
2018-03-20T15:58:54.335Z,1.10
2018-03-20T16:01:24.087Z,1.17
2018-03-20T16:03:53.897Z,1.10
2018-03-20T16:06:23.959Z,1.17
2018-03-20T16:08:53.666Z,0.90
2018-03-20T16:11:23.494Z,0.83
2018-03-20T16:13:53.236Z,0.83
2018-03-20T16:16:23.211Z,0.93
2018-03-20T16:18:52.976Z,1.00
2018-03-20T16:21:22.775Z,1.07
2018-03-20T16:23:52.664Z,1.30
2018-03-20T16:26:22.669Z,1.07
2018-03-20T16:28:53.236Z,1.10
2018-03-20T16:31:23.076Z,0.80
2018-03-20T16:33:52.967Z,1.03
2018-03-20T16:36:23.541Z,1.10
2018-03-20T16:38:53.394Z,1.00
2018-03-20T16:41:23.175Z,1.00
2018-03-20T16:43:53.016Z,0.90
2018-03-20T16:46:22.795Z,1.23
2018-03-20T16:48:52.775Z,0.83
2018-03-20T16:51:22.477Z,1.20
2018-03-20T16:53:52.244Z,0.93
2018-03-20T16:56:21.980Z,1.00
2018-03-20T16:58:51.764Z,0.87
2018-03-20T17:01:21.553Z,0.90
2018-03-20T17:03:52.165Z,1.07
2018-03-20T17:06:22.009Z,0.90
2018-03-20T17:08:52.595Z,1.30
2018-03-20T17:11:22.415Z,0.80
2018-03-20T17:13:52.923Z,0.93
2018-03-20T17:16:23.447Z,0.90
2018-03-20T17:18:53.277Z,0.80
2018-03-20T17:21:23.759Z,1.20
2018-03-20T17:23:53.565Z,1.33
2018-03-20T17:26:23.702Z,0.80
2018-03-20T17:28:53.574Z,0.83
2018-03-20T17:31:23.799Z,0.80
2018-03-20T17:33:53.556Z,1.00
2018-03-20T17:36:24.204Z,1.03
2018-03-20T17:38:54.824Z,1.13
2018-03-20T17:41:24.568Z,1.10
2018-03-20T17:43:55.270Z,1.80
2018-03-20T17:46:25.172Z,1.60
2018-03-20T17:48:54.943Z,1.03
2018-03-20T17:51:24.654Z,1.10
2018-03-20T17:53:54.430Z,0.80
2018-03-20T17:56:24.354Z,1.10
2018-03-20T17:58:54.887Z,1.30
2018-03-20T18:01:24.766Z,1.10
2018-03-20T18:03:54.555Z,1.43
2018-03-20T18:06:24.352Z,1.40
2018-03-20T18:08:54.187Z,1.17
2018-03-20T18:11:24.000Z,1.20
2018-03-20T18:13:53.938Z,1.70
2018-03-20T18:16:23.792Z,1.73
2018-03-20T18:18:53.933Z,1.50
2018-03-20T18:21:23.753Z,1.80
2018-03-20T18:23:54.024Z,1.17
2018-03-20T18:26:24.560Z,1.43
2018-03-20T18:28:55.330Z,1.30
2018-03-20T18:31:25.227Z,1.10
2018-03-20T18:33:55.784Z,1.40
2018-03-20T18:36:26.321Z,1.50
2018-03-20T18:38:56.917Z,2.07
2018-03-20T18:41:26.746Z,1.60
2018-03-20T18:43:56.547Z,1.57
2018-03-20T18:46:26.276Z,2.13
2018-03-20T18:48:56.314Z,1.80
2018-03-20T18:51:26.078Z,2.10
2018-03-20T18:53:56.660Z,1.83
2018-03-20T18:56:26.999Z,2.00
2018-03-20T18:58:56.711Z,2.40
2018-03-20T19:01:26.490Z,2.10
2018-03-20T19:03:57.037Z,2.40
2018-03-20T19:06:27.647Z,2.85
2018-03-20T19:08:57.420Z,2.20
2018-03-20T19:11:27.165Z,2.25
2018-03-20T19:13:56.933Z,2.17
2018-03-20T19:16:26.700Z,1.80
2018-03-20T19:18:56.452Z,2.20
2018-03-20T19:21:26.265Z,1.95
2018-03-20T19:23:56.191Z,1.85
2018-03-20T19:26:26.068Z,1.77
2018-03-20T19:28:55.937Z,1.98
2018-03-20T19:31:25.737Z,1.48
2018-03-20T19:33:55.619Z,1.52
2018-03-20T19:36:25.332Z,1.73
2018-03-20T19:38:55.216Z,1.70
2018-03-20T19:41:24.977Z,2.00
2018-03-20T19:43:54.716Z,2.60
2018-03-20T19:46:24.671Z,2.28
2018-03-20T19:48:54.404Z,2.62
2018-03-20T19:51:24.134Z,2.37
2018-03-20T19:53:53.857Z,1.92
2018-03-20T19:56:23.668Z,2.15
2018-03-20T19:58:53.464Z,2.17
2018-03-20T20:01:24.020Z,2.03
2018-03-20T20:03:53.759Z,2.47
2018-03-20T20:06:23.523Z,3.03
2018-03-20T20:08:53.446Z,2.87
2018-03-20T20:11:23.237Z,2.95
2018-03-20T20:13:53.233Z,2.67
2018-03-20T20:16:22.998Z,3.00
2018-03-20T20:18:52.945Z,2.60
2018-03-20T20:21:22.684Z,2.47
2018-03-20T20:23:52.456Z,2.35
2018-03-20T20:26:22.263Z,2.33
2018-03-20T20:28:52.061Z,2.47
2018-03-20T20:31:21.811Z,2.62
2018-03-20T20:33:52.006Z,3.10
2018-03-20T20:36:22.859Z,2.40
2018-03-20T20:38:52.663Z,2.90
2018-03-20T20:41:23.344Z,2.35
2018-03-20T20:43:53.159Z,2.17
2018-03-20T20:46:22.982Z,2.67
2018-03-20T20:48:53.591Z,2.20
2018-03-20T20:51:23.556Z,2.17
2018-03-20T20:53:54.288Z,2.42
2018-03-20T20:56:24.048Z,2.10
2018-03-20T20:58:53.850Z,1.80
2018-03-20T21:01:24.307Z,2.12
2018-03-20T21:03:54.243Z,1.75
2018-03-20T21:06:24.063Z,1.92
2018-03-20T21:08:53.851Z,2.05
2018-03-20T21:11:23.600Z,1.90
2018-03-20T21:13:54.294Z,1.80
2018-03-20T21:16:24.078Z,2.08
2018-03-20T21:18:53.881Z,1.65
2018-03-20T21:21:24.417Z,1.95
2018-03-20T21:23:55.112Z,1.83
2018-03-20T21:26:24.824Z,1.80
2018-03-20T21:28:54.720Z,1.48
2018-03-20T21:31:25.280Z,1.83
2018-03-20T21:33:54.963Z,1.67
2018-03-20T21:36:25.428Z,1.75
2018-03-20T21:38:55.255Z,1.67
2018-03-20T21:41:24.949Z,1.65
2018-03-20T21:43:55.640Z,1.98
2018-03-20T21:46:25.335Z,1.70
2018-03-20T21:48:55.989Z,1.55
2018-03-20T21:51:25.877Z,1.52
2018-03-20T21:53:56.623Z,1.65
2018-03-20T21:56:26.427Z,1.58
2018-03-20T21:58:56.257Z,1.70
2018-03-20T22:01:26.089Z,1.75
2018-03-20T22:03:55.957Z,1.45
2018-03-20T22:06:25.704Z,1.60
2018-03-20T22:08:55.426Z,1.83
2018-03-20T22:11:25.259Z,2.08
2018-03-20T22:13:55.738Z,1.73
2018-03-20T22:16:26.254Z,1.65
2018-03-20T22:18:56.006Z,2.28
2018-03-20T22:21:26.728Z,1.60
2018-03-20T22:23:56.417Z,1.90
2018-03-20T22:26:26.236Z,2.05
2018-03-20T22:28:56.001Z,2.05
2018-03-20T22:31:25.783Z,1.98
2018-03-20T22:33:55.519Z,2.80
2018-03-20T22:36:25.409Z,1.92
2018-03-20T22:38:55.206Z,1.92
2018-03-20T22:41:25.881Z,2.33
2018-03-20T22:43:55.745Z,1.75
2018-03-20T22:46:25.490Z,2.35
2018-03-20T22:48:56.466Z,1.73
2018-03-20T22:51:26.280Z,1.98
2018-03-20T22:53:56.865Z,1.90
2018-03-20T22:56:26.683Z,2.12
2018-03-20T22:58:56.368Z,2.05
2018-03-20T23:01:26.929Z,2.08
2018-03-20T23:03:56.668Z,1.70
2018-03-20T23:06:26.484Z,2.17
2018-03-20T23:08:56.152Z,2.08
2018-03-20T23:11:25.955Z,2.12
2018-03-20T23:13:55.837Z,2.10
2018-03-20T23:16:25.627Z,1.87
2018-03-20T23:18:55.411Z,2.17
2018-03-20T23:21:25.222Z,1.60
2018-03-20T23:23:54.986Z,1.52
2018-03-20T23:26:24.659Z,1.90
2018-03-20T23:28:54.376Z,1.83
2018-03-20T23:31:24.131Z,1.83
2018-03-20T23:33:53.888Z,1.50
2018-03-20T23:36:24.460Z,1.87
2018-03-20T23:38:54.249Z,1.62
2018-03-20T23:41:25.669Z,2.22
2018-03-20T23:43:55.369Z,2.05
2018-03-20T23:46:25.081Z,1.65
2018-03-20T23:48:55.067Z,2.12
2018-03-20T23:51:24.764Z,2.20
2018-03-20T23:53:54.558Z,2.20
2018-03-20T23:56:24.429Z,2.03
2018-03-20T23:58:54.134Z,1.95
